sensor_id;sensor_type;location;lat;lon;timestamp;P1;durP1;ratioP1;P2;durP2;ratioP2
34585;SDS011;20816;50.950;11.108;2023-12-20T00:00:09;0.10;;;0.10;;
34585;SDS011;20816;50.950;11.108;2023-12-20T00:02:36;0.10;;;0.10;;
34585;SDS011;20816;50.950;11.108;2023-12-20T00:05:03;0.00;;;0.00;;
34585;SDS011;20816;50.950;11.108;2023-12-20T00:07:30;0.00;;;0.00;;
34585;SDS011;20816;50.950;11.108;2023-12-20T00:09:56;0.17;;;0.17;;
34585;SDS011;20816;50.950;11.108;2023-12-20T00:12:23;0.00;;;0.00;;
34585;SDS011;20816;50.950;11.108;2023-12-20T00:14:50;0.10;;;0.10;;
34585;SDS011;20816;50.950;11.108;2023-12-20T00:17:17;0.00;;;0.00;;
34585;SDS011;20816;50.950;11.108;2023-12-20T00:19:43;0.10;;;0.10;;
34585;SDS011;20816;50.950;11.108;2023-12-20T00:22:10;0.00;;;0.00;;
34585;SDS011;20816;50.950;11.108;2023-12-20T00:24:37;0.00;;;0.00;;
34585;SDS011;20816;50.950;11.108;2023-12-20T00:27:04;0.17;;;0.13;;
34585;SDS011;20816;50.950;11.108;2023-12-20T00:29:31;0.00;;;0.00;;
34585;SDS011;20816;50.950;11.108;2023-12-20T00:31:57;0.10;;;0.10;;
34585;SDS011;20816;50.950;11.108;2023-12-20T00:34:24;0.00;;;0.00;;
34585;SDS011;20816;50.950;11.108;2023-12-20T00:36:51;0.17;;;0.17;;
34585;SDS011;20816;50.950;11.108;2023-12-20T00:39:17;0.00;;;0.00;;
34585;SDS011;20816;50.950;11.108;2023-12-20T00:41:44;0.67;;;0.10;;
34585;SDS011;20816;50.950;11.108;2023-12-20T00:44:11;0.00;;;0.00;;
34585;SDS011;20816;50.950;11.108;2023-12-20T00:46:37;0.20;;;0.17;;
34585;SDS011;20816;50.950;11.108;2023-12-20T00:49:04;0.00;;;0.00;;
34585;SDS011;20816;50.950;11.108;2023-12-20T00:51:31;0.20;;;0.20;;
34585;SDS011;20816;50.950;11.108;2023-12-20T00:53:57;0.00;;;0.00;;
34585;SDS011;20816;50.950;11.108;2023-12-20T00:56:24;0.17;;;0.17;;
34585;SDS011;20816;50.950;11.108;2023-12-20T00:58:51;0.10;;;0.10;;
34585;SDS011;20816;50.950;11.108;2023-12-20T01:01:18;0.00;;;0.00;;
34585;SDS011;20816;50.950;11.108;2023-12-20T01:03:45;0.00;;;0.00;;
34585;SDS011;20816;50.950;11.108;2023-12-20T01:06:11;0.00;;;0.00;;
34585;SDS011;20816;50.950;11.108;2023-12-20T01:08:38;0.00;;;0.00;;
34585;SDS011;20816;50.950;11.108;2023-12-20T01:11:05;0.20;;;0.20;;
34585;SDS011;20816;50.950;11.108;2023-12-20T01:13:32;0.47;;;0.20;;
34585;SDS011;20816;50.950;11.108;2023-12-20T01:15:59;0.30;;;0.10;;
34585;SDS011;20816;50.950;11.108;2023-12-20T01:18:26;0.00;;;0.00;;
34585;SDS011;20816;50.950;11.108;2023-12-20T01:20:52;0.00;;;0.00;;
34585;SDS011;20816;50.950;11.108;2023-12-20T01:23:19;0.00;;;0.00;;
34585;SDS011;20816;50.950;11.108;2023-12-20T01:25:45;0.10;;;0.10;;
34585;SDS011;20816;50.950;11.108;2023-12-20T01:28:12;0.00;;;0.00;;
34585;SDS011;20816;50.950;11.108;2023-12-20T01:30:39;0.07;;;0.03;;
34585;SDS011;20816;50.950;11.108;2023-12-20T01:33:06;0.03;;;0.03;;
34585;SDS011;20816;50.950;11.108;2023-12-20T01:35:32;0.20;;;0.20;;
34585;SDS011;20816;50.950;11.108;2023-12-20T01:37:59;0.77;;;0.30;;
34585;SDS011;20816;50.950;11.108;2023-12-20T01:40:26;0.10;;;0.10;;
34585;SDS011;20816;50.950;11.108;2023-12-20T01:42:59;0.10;;;0.10;;
34585;SDS011;20816;50.950;11.108;2023-12-20T01:45:27;0.00;;;0.00;;
34585;SDS011;20816;50.950;11.108;2023-12-20T01:47:55;0.13;;;0.13;;
34585;SDS011;20816;50.950;11.108;2023-12-20T01:50:23;0.00;;;0.00;;
34585;SDS011;20816;50.950;11.108;2023-12-20T01:52:51;0.10;;;0.10;;
34585;SDS011;20816;50.950;11.108;2023-12-20T01:55:19;0.07;;;0.07;;
34585;SDS011;20816;50.950;11.108;2023-12-20T01:57:46;0.00;;;0.00;;
34585;SDS011;20816;50.950;11.108;2023-12-20T02:00:14;0.10;;;0.10;;
34585;SDS011;20816;50.950;11.108;2023-12-20T02:02:41;0.00;;;0.00;;
34585;SDS011;20816;50.950;11.108;2023-12-20T02:05:09;0.10;;;0.10;;
34585;SDS011;20816;50.950;11.108;2023-12-20T02:07:37;0.10;;;0.00;;
34585;SDS011;20816;50.950;11.108;2023-12-20T02:10:04;0.10;;;0.10;;
34585;SDS011;20816;50.950;11.108;2023-12-20T02:12:31;0.10;;;0.10;;
34585;SDS011;20816;50.950;11.108;2023-12-20T02:14:58;0.10;;;0.10;;
34585;SDS011;20816;50.950;11.108;2023-12-20T02:17:25;0.33;;;0.23;;
34585;SDS011;20816;50.950;11.108;2023-12-20T02:19:52;0.20;;;0.20;;
34585;SDS011;20816;50.950;11.108;2023-12-20T02:22:19;0.10;;;0.10;;
34585;SDS011;20816;50.950;11.108;2023-12-20T02:24:45;0.00;;;0.00;;
34585;SDS011;20816;50.950;11.108;2023-12-20T02:27:12;0.00;;;0.00;;
34585;SDS011;20816;50.950;11.108;2023-12-20T02:29:39;0.00;;;0.00;;
34585;SDS011;20816;50.950;11.108;2023-12-20T02:32:06;0.10;;;0.10;;
34585;SDS011;20816;50.950;11.108;2023-12-20T02:34:34;0.30;;;0.10;;
34585;SDS011;20816;50.950;11.108;2023-12-20T02:37:01;0.00;;;0.00;;
34585;SDS011;20816;50.950;11.108;2023-12-20T02:39:28;0.00;;;0.00;;
34585;SDS011;20816;50.950;11.108;2023-12-20T02:41:55;0.00;;;0.00;;
34585;SDS011;20816;50.950;11.108;2023-12-20T02:44:21;0.03;;;0.00;;
34585;SDS011;20816;50.950;11.108;2023-12-20T02:46:48;0.00;;;0.00;;
34585;SDS011;20816;50.950;11.108;2023-12-20T02:49:15;0.00;;;0.00;;
34585;SDS011;20816;50.950;11.108;2023-12-20T02:51:42;0.10;;;0.10;;
34585;SDS011;20816;50.950;11.108;2023-12-20T02:54:08;0.10;;;0.10;;
34585;SDS011;20816;50.950;11.108;2023-12-20T02:56:35;0.03;;;0.03;;
34585;SDS011;20816;50.950;11.108;2023-12-20T02:59:02;0.00;;;0.00;;
34585;SDS011;20816;50.950;11.108;2023-12-20T03:01:55;0.10;;;0.10;;
34585;SDS011;20816;50.950;11.108;2023-12-20T03:04:26;0.00;;;0.00;;
34585;SDS011;20816;50.950;11.108;2023-12-20T03:06:53;0.20;;;0.17;;
34585;SDS011;20816;50.950;11.108;2023-12-20T03:09:20;0.00;;;0.00;;
34585;SDS011;20816;50.950;11.108;2023-12-20T03:11:46;0.90;;;0.10;;
34585;SDS011;20816;50.950;11.108;2023-12-20T03:14:13;0.00;;;0.00;;
34585;SDS011;20816;50.950;11.108;2023-12-20T03:16:39;0.00;;;0.00;;
34585;SDS011;20816;50.950;11.108;2023-12-20T03:19:06;0.00;;;0.00;;
34585;SDS011;20816;50.950;11.108;2023-12-20T03:21:33;0.00;;;0.00;;
34585;SDS011;20816;50.950;11.108;2023-12-20T03:23:59;0.00;;;0.00;;
34585;SDS011;20816;50.950;11.108;2023-12-20T03:26:26;0.00;;;0.00;;
34585;SDS011;20816;50.950;11.108;2023-12-20T03:28:53;0.00;;;0.00;;
34585;SDS011;20816;50.950;11.108;2023-12-20T03:31:20;0.00;;;0.00;;
34585;SDS011;20816;50.950;11.108;2023-12-20T03:33:47;0.00;;;0.00;;
34585;SDS011;20816;50.950;11.108;2023-12-20T03:36:14;0.00;;;0.00;;
34585;SDS011;20816;50.950;11.108;2023-12-20T03:38:41;0.00;;;0.00;;
34585;SDS011;20816;50.950;11.108;2023-12-20T03:41:07;0.10;;;0.10;;
34585;SDS011;20816;50.950;11.108;2023-12-20T03:43:34;0.10;;;0.10;;
34585;SDS011;20816;50.950;11.108;2023-12-20T03:46:01;0.30;;;0.20;;
34585;SDS011;20816;50.950;11.108;2023-12-20T03:48:30;0.17;;;0.17;;
34585;SDS011;20816;50.950;11.108;2023-12-20T03:50:57;0.47;;;0.37;;
34585;SDS011;20816;50.950;11.108;2023-12-20T03:53:24;0.20;;;0.20;;
34585;SDS011;20816;50.950;11.108;2023-12-20T03:55:51;0.50;;;0.50;;
34585;SDS011;20816;50.950;11.108;2023-12-20T03:58:17;0.20;;;0.10;;
34585;SDS011;20816;50.950;11.108;2023-12-20T04:00:44;0.37;;;0.33;;
34585;SDS011;20816;50.950;11.108;2023-12-20T04:03:11;0.20;;;0.20;;
34585;SDS011;20816;50.950;11.108;2023-12-20T04:05:41;0.33;;;0.33;;
34585;SDS011;20816;50.950;11.108;2023-12-20T04:08:08;0.10;;;0.10;;
34585;SDS011;20816;50.950;11.108;2023-12-20T04:10:35;0.30;;;0.10;;
34585;SDS011;20816;50.950;11.108;2023-12-20T04:13:04;0.20;;;0.20;;
34585;SDS011;20816;50.950;11.108;2023-12-20T04:15:31;0.10;;;0.10;;
34585;SDS011;20816;50.950;11.108;2023-12-20T04:17:57;3.20;;;0.40;;
34585;SDS011;20816;50.950;11.108;2023-12-20T04:20:24;0.10;;;0.10;;
34585;SDS011;20816;50.950;11.108;2023-12-20T04:22:51;0.13;;;0.13;;
34585;SDS011;20816;50.950;11.108;2023-12-20T04:25:18;0.17;;;0.10;;
34585;SDS011;20816;50.950;11.108;2023-12-20T04:27:44;0.10;;;0.10;;
34585;SDS011;20816;50.950;11.108;2023-12-20T04:30:12;0.33;;;0.17;;
34585;SDS011;20816;50.950;11.108;2023-12-20T04:32:40;0.20;;;0.20;;
34585;SDS011;20816;50.950;11.108;2023-12-20T04:35:06;0.63;;;0.20;;
34585;SDS011;20816;50.950;11.108;2023-12-20T04:37:35;0.83;;;0.40;;
34585;SDS011;20816;50.950;11.108;2023-12-20T04:40:02;0.57;;;0.50;;
34585;SDS011;20816;50.950;11.108;2023-12-20T04:42:29;0.20;;;0.20;;
34585;SDS011;20816;50.950;11.108;2023-12-20T04:44:56;0.20;;;0.20;;
34585;SDS011;20816;50.950;11.108;2023-12-20T04:47:22;0.30;;;0.20;;
34585;SDS011;20816;50.950;11.108;2023-12-20T04:49:49;0.10;;;0.10;;
34585;SDS011;20816;50.950;11.108;2023-12-20T04:52:16;0.33;;;0.20;;
34585;SDS011;20816;50.950;11.108;2023-12-20T04:54:42;0.57;;;0.50;;
34585;SDS011;20816;50.950;11.108;2023-12-20T04:57:10;0.50;;;0.50;;
34585;SDS011;20816;50.950;11.108;2023-12-20T04:59:37;0.67;;;0.57;;
34585;SDS011;20816;50.950;11.108;2023-12-20T05:02:03;0.40;;;0.37;;
34585;SDS011;20816;50.950;11.108;2023-12-20T05:04:30;0.90;;;0.73;;
34585;SDS011;20816;50.950;11.108;2023-12-20T05:06:57;0.27;;;0.23;;
34585;SDS011;20816;50.950;11.108;2023-12-20T05:09:24;0.30;;;0.30;;
34585;SDS011;20816;50.950;11.108;2023-12-20T05:11:51;0.20;;;0.20;;
34585;SDS011;20816;50.950;11.108;2023-12-20T05:14:17;0.60;;;0.60;;
34585;SDS011;20816;50.950;11.108;2023-12-20T05:16:44;0.50;;;0.43;;
34585;SDS011;20816;50.950;11.108;2023-12-20T05:19:11;1.27;;;0.67;;
34585;SDS011;20816;50.950;11.108;2023-12-20T05:21:37;0.77;;;0.47;;
34585;SDS011;20816;50.950;11.108;2023-12-20T05:24:04;0.67;;;0.60;;
34585;SDS011;20816;50.950;11.108;2023-12-20T05:26:31;0.37;;;0.37;;
34585;SDS011;20816;50.950;11.108;2023-12-20T05:28:58;1.00;;;0.70;;
34585;SDS011;20816;50.950;11.108;2023-12-20T05:31:24;0.80;;;0.70;;
34585;SDS011;20816;50.950;11.108;2023-12-20T05:33:51;4.53;;;0.80;;
34585;SDS011;20816;50.950;11.108;2023-12-20T05:36:18;0.53;;;0.53;;
34585;SDS011;20816;50.950;11.108;2023-12-20T05:38:45;1.70;;;0.90;;
34585;SDS011;20816;50.950;11.108;2023-12-20T05:41:11;0.30;;;0.30;;
34585;SDS011;20816;50.950;11.108;2023-12-20T05:43:38;0.67;;;0.50;;
34585;SDS011;20816;50.950;11.108;2023-12-20T05:46:06;1.17;;;0.87;;
34585;SDS011;20816;50.950;11.108;2023-12-20T05:48:33;0.60;;;0.50;;
34585;SDS011;20816;50.950;11.108;2023-12-20T05:51:00;2.40;;;1.33;;
34585;SDS011;20816;50.950;11.108;2023-12-20T05:53:26;1.00;;;1.00;;
34585;SDS011;20816;50.950;11.108;2023-12-20T05:55:53;0.43;;;0.40;;
34585;SDS011;20816;50.950;11.108;2023-12-20T05:58:20;0.67;;;0.67;;
34585;SDS011;20816;50.950;11.108;2023-12-20T06:00:46;0.40;;;0.40;;
34585;SDS011;20816;50.950;11.108;2023-12-20T06:03:15;0.40;;;0.40;;
34585;SDS011;20816;50.950;11.108;2023-12-20T06:05:42;0.70;;;0.60;;
34585;SDS011;20816;50.950;11.108;2023-12-20T06:08:08;0.93;;;0.77;;
34585;SDS011;20816;50.950;11.108;2023-12-20T06:10:35;0.97;;;0.60;;
34585;SDS011;20816;50.950;11.108;2023-12-20T06:13:02;0.57;;;0.53;;
34585;SDS011;20816;50.950;11.108;2023-12-20T06:15:30;2.00;;;1.57;;
34585;SDS011;20816;50.950;11.108;2023-12-20T06:17:57;0.93;;;0.63;;
34585;SDS011;20816;50.950;11.108;2023-12-20T06:20:24;1.47;;;0.80;;
34585;SDS011;20816;50.950;11.108;2023-12-20T06:22:51;0.77;;;0.77;;
34585;SDS011;20816;50.950;11.108;2023-12-20T06:25:18;2.47;;;1.60;;
34585;SDS011;20816;50.950;11.108;2023-12-20T06:27:44;1.10;;;1.00;;
34585;SDS011;20816;50.950;11.108;2023-12-20T06:30:11;1.93;;;1.50;;
34585;SDS011;20816;50.950;11.108;2023-12-20T06:32:39;1.53;;;0.70;;
34585;SDS011;20816;50.950;11.108;2023-12-20T06:35:06;1.33;;;0.93;;
34585;SDS011;20816;50.950;11.108;2023-12-20T06:37:33;1.37;;;1.17;;
34585;SDS011;20816;50.950;11.108;2023-12-20T06:39:59;1.17;;;0.80;;
34585;SDS011;20816;50.950;11.108;2023-12-20T06:42:26;5.53;;;1.40;;
34585;SDS011;20816;50.950;11.108;2023-12-20T06:44:55;1.70;;;1.53;;
34585;SDS011;20816;50.950;11.108;2023-12-20T06:47:21;7.53;;;3.33;;
34585;SDS011;20816;50.950;11.108;2023-12-20T06:49:48;1.63;;;1.13;;
34585;SDS011;20816;50.950;11.108;2023-12-20T06:52:15;2.33;;;1.67;;
34585;SDS011;20816;50.950;11.108;2023-12-20T06:54:42;2.70;;;0.80;;
34585;SDS011;20816;50.950;11.108;2023-12-20T06:57:09;1.07;;;0.97;;
34585;SDS011;20816;50.950;11.108;2023-12-20T06:59:39;0.77;;;0.77;;
34585;SDS011;20816;50.950;11.108;2023-12-20T07:02:07;1.33;;;0.57;;
34585;SDS011;20816;50.950;11.108;2023-12-20T07:04:40;0.53;;;0.53;;
34585;SDS011;20816;50.950;11.108;2023-12-20T07:07:07;0.80;;;0.47;;
34585;SDS011;20816;50.950;11.108;2023-12-20T07:09:34;1.53;;;0.77;;
34585;SDS011;20816;50.950;11.108;2023-12-20T07:12:01;1.23;;;0.80;;
34585;SDS011;20816;50.950;11.108;2023-12-20T07:14:28;1.93;;;1.17;;
34585;SDS011;20816;50.950;11.108;2023-12-20T07:16:55;1.33;;;1.10;;
34585;SDS011;20816;50.950;11.108;2023-12-20T07:19:22;1.30;;;0.83;;
34585;SDS011;20816;50.950;11.108;2023-12-20T07:21:49;1.70;;;1.20;;
34585;SDS011;20816;50.950;11.108;2023-12-20T07:24:15;4.07;;;0.77;;
34585;SDS011;20816;50.950;11.108;2023-12-20T07:26:42;0.97;;;0.90;;
34585;SDS011;20816;50.950;11.108;2023-12-20T07:29:09;0.80;;;0.77;;
34585;SDS011;20816;50.950;11.108;2023-12-20T07:31:37;0.80;;;0.60;;
34585;SDS011;20816;50.950;11.108;2023-12-20T07:34:04;3.03;;;1.20;;
34585;SDS011;20816;50.950;11.108;2023-12-20T07:36:32;0.77;;;0.77;;
34585;SDS011;20816;50.950;11.108;2023-12-20T07:38:59;1.60;;;1.50;;
34585;SDS011;20816;50.950;11.108;2023-12-20T07:41:25;1.87;;;1.23;;
34585;SDS011;20816;50.950;11.108;2023-12-20T07:43:52;1.20;;;0.97;;
34585;SDS011;20816;50.950;11.108;2023-12-20T07:46:20;12.63;;;1.67;;
34585;SDS011;20816;50.950;11.108;2023-12-20T07:48:49;6.00;;;1.03;;
34585;SDS011;20816;50.950;11.108;2023-12-20T07:51:16;1.53;;;1.33;;
34585;SDS011;20816;50.950;11.108;2023-12-20T07:53:42;1.57;;;1.10;;
34585;SDS011;20816;50.950;11.108;2023-12-20T07:56:16;2.00;;;1.33;;
34585;SDS011;20816;50.950;11.108;2023-12-20T07:58:44;2.50;;;1.03;;
34585;SDS011;20816;50.950;11.108;2023-12-20T08:01:18;1.10;;;0.87;;
34585;SDS011;20816;50.950;11.108;2023-12-20T08:03:46;1.30;;;1.00;;
34585;SDS011;20816;50.950;11.108;2023-12-20T08:06:15;1.03;;;0.93;;
34585;SDS011;20816;50.950;11.108;2023-12-20T08:08:44;1.53;;;0.93;;
34585;SDS011;20816;50.950;11.108;2023-12-20T08:11:10;1.57;;;1.10;;
34585;SDS011;20816;50.950;11.108;2023-12-20T08:13:37;1.10;;;0.73;;
34585;SDS011;20816;50.950;11.108;2023-12-20T08:16:04;1.40;;;1.17;;
34585;SDS011;20816;50.950;11.108;2023-12-20T08:18:31;1.13;;;0.97;;
34585;SDS011;20816;50.950;11.108;2023-12-20T08:20:59;1.93;;;1.53;;
34585;SDS011;20816;50.950;11.108;2023-12-20T08:23:26;1.30;;;1.20;;
34585;SDS011;20816;50.950;11.108;2023-12-20T08:25:55;4.33;;;1.33;;
34585;SDS011;20816;50.950;11.108;2023-12-20T08:28:22;2.90;;;1.30;;
34585;SDS011;20816;50.950;11.108;2023-12-20T08:30:49;1.73;;;1.13;;
34585;SDS011;20816;50.950;11.108;2023-12-20T08:33:20;1.73;;;1.10;;
34585;SDS011;20816;50.950;11.108;2023-12-20T08:35:46;1.13;;;0.90;;
34585;SDS011;20816;50.950;11.108;2023-12-20T08:38:13;1.77;;;1.27;;
34585;SDS011;20816;50.950;11.108;2023-12-20T08:40:40;1.50;;;1.23;;
34585;SDS011;20816;50.950;11.108;2023-12-20T08:43:08;1.33;;;1.20;;
34585;SDS011;20816;50.950;11.108;2023-12-20T08:45:35;9.07;;;1.77;;
34585;SDS011;20816;50.950;11.108;2023-12-20T08:48:02;1.37;;;1.20;;
34585;SDS011;20816;50.950;11.108;2023-12-20T08:50:29;2.03;;;0.70;;
34585;SDS011;20816;50.950;11.108;2023-12-20T08:52:56;2.93;;;1.53;;
34585;SDS011;20816;50.950;11.108;2023-12-20T08:55:23;6.03;;;1.20;;
34585;SDS011;20816;50.950;11.108;2023-12-20T08:57:49;1.13;;;0.73;;
34585;SDS011;20816;50.950;11.108;2023-12-20T09:00:17;1.90;;;1.27;;
34585;SDS011;20816;50.950;11.108;2023-12-20T09:02:46;1.40;;;1.17;;
34585;SDS011;20816;50.950;11.108;2023-12-20T09:05:13;1.80;;;1.33;;
34585;SDS011;20816;50.950;11.108;2023-12-20T09:07:40;6.60;;;1.10;;
34585;SDS011;20816;50.950;11.108;2023-12-20T09:10:07;1.30;;;0.73;;
34585;SDS011;20816;50.950;11.108;2023-12-20T09:12:34;1.17;;;1.00;;
34585;SDS011;20816;50.950;11.108;2023-12-20T09:15:01;2.43;;;0.60;;
34585;SDS011;20816;50.950;11.108;2023-12-20T09:17:29;0.57;;;0.57;;
34585;SDS011;20816;50.950;11.108;2023-12-20T09:19:57;3.50;;;1.20;;
34585;SDS011;20816;50.950;11.108;2023-12-20T09:22:26;5.27;;;1.00;;
34585;SDS011;20816;50.950;11.108;2023-12-20T09:24:52;4.03;;;0.93;;
34585;SDS011;20816;50.950;11.108;2023-12-20T09:27:19;3.40;;;0.77;;
34585;SDS011;20816;50.950;11.108;2023-12-20T09:29:47;1.37;;;1.27;;
34585;SDS011;20816;50.950;11.108;2023-12-20T09:32:14;2.87;;;1.70;;
34585;SDS011;20816;50.950;11.108;2023-12-20T09:34:41;1.37;;;1.17;;
34585;SDS011;20816;50.950;11.108;2023-12-20T09:37:08;1.17;;;0.70;;
34585;SDS011;20816;50.950;11.108;2023-12-20T09:39:35;1.27;;;0.90;;
34585;SDS011;20816;50.950;11.108;2023-12-20T09:42:06;1.70;;;0.83;;
34585;SDS011;20816;50.950;11.108;2023-12-20T09:44:33;1.70;;;1.03;;
34585;SDS011;20816;50.950;11.108;2023-12-20T09:47:03;1.07;;;0.93;;
34585;SDS011;20816;50.950;11.108;2023-12-20T09:49:30;4.23;;;1.03;;
34585;SDS011;20816;50.950;11.108;2023-12-20T09:51:59;0.57;;;0.57;;
34585;SDS011;20816;50.950;11.108;2023-12-20T09:54:26;2.67;;;0.90;;
34585;SDS011;20816;50.950;11.108;2023-12-20T09:56:55;0.80;;;0.53;;
34585;SDS011;20816;50.950;11.108;2023-12-20T09:59:21;0.50;;;0.40;;
34585;SDS011;20816;50.950;11.108;2023-12-20T10:01:48;2.33;;;0.63;;
34585;SDS011;20816;50.950;11.108;2023-12-20T10:04:16;3.03;;;1.23;;
34585;SDS011;20816;50.950;11.108;2023-12-20T10:06:55;1.93;;;0.70;;
34585;SDS011;20816;50.950;11.108;2023-12-20T10:09:23;0.40;;;0.40;;
34585;SDS011;20816;50.950;11.108;2023-12-20T10:11:53;0.57;;;0.57;;
34585;SDS011;20816;50.950;11.108;2023-12-20T10:14:20;2.43;;;1.13;;
34585;SDS011;20816;50.950;11.108;2023-12-20T10:16:49;3.07;;;1.40;;
34585;SDS011;20816;50.950;11.108;2023-12-20T10:19:17;1.47;;;0.73;;
34585;SDS011;20816;50.950;11.108;2023-12-20T10:21:44;2.87;;;1.57;;
34585;SDS011;20816;50.950;11.108;2023-12-20T10:24:16;3.53;;;0.90;;
34585;SDS011;20816;50.950;11.108;2023-12-20T10:26:43;7.00;;;0.60;;
34585;SDS011;20816;50.950;11.108;2023-12-20T10:29:10;2.27;;;1.10;;
34585;SDS011;20816;50.950;11.108;2023-12-20T10:32:14;2.30;;;1.13;;
34585;SDS011;20816;50.950;11.108;2023-12-20T10:34:55;3.07;;;0.50;;
34585;SDS011;20816;50.950;11.108;2023-12-20T10:37:23;1.00;;;0.90;;
34585;SDS011;20816;50.950;11.108;2023-12-20T10:39:50;1.53;;;1.20;;
34585;SDS011;20816;50.950;11.108;2023-12-20T10:42:20;7.33;;;1.13;;
34585;SDS011;20816;50.950;11.108;2023-12-20T10:44:51;3.70;;;0.93;;
34585;SDS011;20816;50.950;11.108;2023-12-20T10:47:20;2.93;;;0.90;;
34585;SDS011;20816;50.950;11.108;2023-12-20T10:49:47;5.47;;;0.67;;
34585;SDS011;20816;50.950;11.108;2023-12-20T10:52:15;6.40;;;1.23;;
34585;SDS011;20816;50.950;11.108;2023-12-20T10:54:44;1.63;;;1.13;;
34585;SDS011;20816;50.950;11.108;2023-12-20T10:57:11;0.90;;;0.80;;
34585;SDS011;20816;50.950;11.108;2023-12-20T10:59:38;1.07;;;0.90;;
34585;SDS011;20816;50.950;11.108;2023-12-20T11:02:06;2.20;;;0.60;;
34585;SDS011;20816;50.950;11.108;2023-12-20T11:07:35;3.13;;;1.10;;
34585;SDS011;20816;50.950;11.108;2023-12-20T11:13:09;1.17;;;0.80;;
34585;SDS011;20816;50.950;11.108;2023-12-20T11:15:39;0.97;;;0.90;;
34585;SDS011;20816;50.950;11.108;2023-12-20T11:18:06;2.53;;;0.77;;
34585;SDS011;20816;50.950;11.108;2023-12-20T11:20:37;1.53;;;0.90;;
34585;SDS011;20816;50.950;11.108;2023-12-20T11:23:04;0.50;;;0.50;;
34585;SDS011;20816;50.950;11.108;2023-12-20T11:25:52;0.70;;;0.67;;
34585;SDS011;20816;50.950;11.108;2023-12-20T11:28:23;1.33;;;0.60;;
34585;SDS011;20816;50.950;11.108;2023-12-20T11:30:52;2.90;;;1.13;;
34585;SDS011;20816;50.950;11.108;2023-12-20T11:33:23;3.90;;;0.83;;
34585;SDS011;20816;50.950;11.108;2023-12-20T11:35:55;0.47;;;0.43;;
34585;SDS011;20816;50.950;11.108;2023-12-20T11:38:23;1.63;;;0.43;;
34585;SDS011;20816;50.950;11.108;2023-12-20T11:40:51;7.40;;;1.10;;
34585;SDS011;20816;50.950;11.108;2023-12-20T11:43:30;1.30;;;0.67;;
34585;SDS011;20816;50.950;11.108;2023-12-20T11:46:02;1.60;;;0.70;;
34585;SDS011;20816;50.950;11.108;2023-12-20T11:48:31;1.30;;;1.20;;
34585;SDS011;20816;50.950;11.108;2023-12-20T11:50:59;2.47;;;1.47;;
34585;SDS011;20816;50.950;11.108;2023-12-20T11:53:25;1.53;;;1.43;;
34585;SDS011;20816;50.950;11.108;2023-12-20T11:55:53;0.70;;;0.70;;
34585;SDS011;20816;50.950;11.108;2023-12-20T11:58:21;2.03;;;0.70;;
34585;SDS011;20816;50.950;11.108;2023-12-20T12:00:49;0.60;;;0.60;;
34585;SDS011;20816;50.950;11.108;2023-12-20T12:03:16;1.80;;;0.80;;
34585;SDS011;20816;50.950;11.108;2023-12-20T12:05:45;4.17;;;0.80;;
34585;SDS011;20816;50.950;11.108;2023-12-20T12:08:13;1.70;;;0.50;;
34585;SDS011;20816;50.950;11.108;2023-12-20T12:10:40;2.53;;;0.67;;
34585;SDS011;20816;50.950;11.108;2023-12-20T12:13:07;0.50;;;0.40;;
34585;SDS011;20816;50.950;11.108;2023-12-20T12:15:34;2.53;;;0.57;;
34585;SDS011;20816;50.950;11.108;2023-12-20T12:18:02;0.67;;;0.67;;
34585;SDS011;20816;50.950;11.108;2023-12-20T12:20:29;2.10;;;0.60;;
34585;SDS011;20816;50.950;11.108;2023-12-20T12:23:00;7.80;;;1.07;;
34585;SDS011;20816;50.950;11.108;2023-12-20T12:25:28;1.80;;;0.30;;
34585;SDS011;20816;50.950;11.108;2023-12-20T12:28:00;2.47;;;0.80;;
34585;SDS011;20816;50.950;11.108;2023-12-20T12:30:27;9.13;;;0.60;;
34585;SDS011;20816;50.950;11.108;2023-12-20T12:33:04;0.53;;;0.47;;
34585;SDS011;20816;50.950;11.108;2023-12-20T12:35:31;0.70;;;0.70;;
34585;SDS011;20816;50.950;11.108;2023-12-20T12:37:58;1.57;;;0.50;;
34585;SDS011;20816;50.950;11.108;2023-12-20T12:40:25;0.90;;;0.60;;
34585;SDS011;20816;50.950;11.108;2023-12-20T12:42:54;2.17;;;0.60;;
34585;SDS011;20816;50.950;11.108;2023-12-20T12:45:21;1.23;;;0.83;;
34585;SDS011;20816;50.950;11.108;2023-12-20T12:47:48;2.63;;;0.90;;
34585;SDS011;20816;50.950;11.108;2023-12-20T12:50:15;0.57;;;0.40;;
34585;SDS011;20816;50.950;11.108;2023-12-20T12:52:42;6.23;;;1.03;;
34585;SDS011;20816;50.950;11.108;2023-12-20T12:55:09;2.80;;;0.93;;
34585;SDS011;20816;50.950;11.108;2023-12-20T12:57:35;0.30;;;0.30;;
34585;SDS011;20816;50.950;11.108;2023-12-20T13:00:02;0.33;;;0.30;;
34585;SDS011;20816;50.950;11.108;2023-12-20T13:02:29;0.87;;;0.60;;
34585;SDS011;20816;50.950;11.108;2023-12-20T13:04:57;2.17;;;1.10;;
34585;SDS011;20816;50.950;11.108;2023-12-20T13:07:24;1.27;;;0.83;;
34585;SDS011;20816;50.950;11.108;2023-12-20T13:09:51;3.10;;;1.27;;
34585;SDS011;20816;50.950;11.108;2023-12-20T13:12:17;2.27;;;1.23;;
34585;SDS011;20816;50.950;11.108;2023-12-20T13:14:44;0.37;;;0.37;;
34585;SDS011;20816;50.950;11.108;2023-12-20T13:17:11;2.67;;;1.53;;
34585;SDS011;20816;50.950;11.108;2023-12-20T13:19:38;3.93;;;0.43;;
34585;SDS011;20816;50.950;11.108;2023-12-20T13:22:05;0.50;;;0.50;;
34585;SDS011;20816;50.950;11.108;2023-12-20T13:24:32;2.63;;;0.73;;
34585;SDS011;20816;50.950;11.108;2023-12-20T13:26:59;0.60;;;0.60;;
34585;SDS011;20816;50.950;11.108;2023-12-20T13:29:26;2.00;;;0.70;;
34585;SDS011;20816;50.950;11.108;2023-12-20T13:31:56;0.40;;;0.30;;
34585;SDS011;20816;50.950;11.108;2023-12-20T13:34:28;1.13;;;0.20;;
34585;SDS011;20816;50.950;11.108;2023-12-20T13:36:54;4.07;;;1.23;;
34585;SDS011;20816;50.950;11.108;2023-12-20T13:39:21;0.77;;;0.50;;
34585;SDS011;20816;50.950;11.108;2023-12-20T13:41:48;2.07;;;1.50;;
34585;SDS011;20816;50.950;11.108;2023-12-20T13:44:15;4.50;;;0.70;;
34585;SDS011;20816;50.950;11.108;2023-12-20T13:46:42;1.43;;;0.70;;
34585;SDS011;20816;50.950;11.108;2023-12-20T13:49:08;0.97;;;0.47;;
34585;SDS011;20816;50.950;11.108;2023-12-20T13:51:35;0.37;;;0.27;;
34585;SDS011;20816;50.950;11.108;2023-12-20T13:54:02;2.47;;;0.40;;
34585;SDS011;20816;50.950;11.108;2023-12-20T13:56:29;1.10;;;0.40;;
34585;SDS011;20816;50.950;11.108;2023-12-20T13:58:56;0.40;;;0.37;;
34585;SDS011;20816;50.950;11.108;2023-12-20T14:01:23;0.57;;;0.50;;
34585;SDS011;20816;50.950;11.108;2023-12-20T14:03:50;0.93;;;0.40;;
34585;SDS011;20816;50.950;11.108;2023-12-20T14:06:17;0.33;;;0.33;;
34585;SDS011;20816;50.950;11.108;2023-12-20T14:08:44;0.30;;;0.30;;
34585;SDS011;20816;50.950;11.108;2023-12-20T14:11:11;0.90;;;0.90;;
34585;SDS011;20816;50.950;11.108;2023-12-20T14:13:37;0.50;;;0.50;;
34585;SDS011;20816;50.950;11.108;2023-12-20T14:16:04;1.23;;;0.50;;
34585;SDS011;20816;50.950;11.108;2023-12-20T14:18:31;0.30;;;0.30;;
34585;SDS011;20816;50.950;11.108;2023-12-20T14:20:58;1.70;;;0.40;;
34585;SDS011;20816;50.950;11.108;2023-12-20T14:23:24;2.03;;;0.30;;
34585;SDS011;20816;50.950;11.108;2023-12-20T14:25:51;0.33;;;0.33;;
34585;SDS011;20816;50.950;11.108;2023-12-20T14:28:18;2.97;;;0.33;;
34585;SDS011;20816;50.950;11.108;2023-12-20T14:30:45;1.27;;;1.03;;
34585;SDS011;20816;50.950;11.108;2023-12-20T14:33:12;1.10;;;0.77;;
34585;SDS011;20816;50.950;11.108;2023-12-20T14:35:40;0.20;;;0.20;;
34585;SDS011;20816;50.950;11.108;2023-12-20T14:38:11;5.30;;;0.37;;
34585;SDS011;20816;50.950;11.108;2023-12-20T14:40:39;0.30;;;0.30;;